Sukkur, Pakistan
Current Conditions -  °F | °C
As of 6:55 AM on Sunday 26 Oct 2014 (Local Time) from OPNH Reporting Station
Haze Haze  
Wind Chill: 68°   Ceiling: Unl
Heat Index: 68°   Visibility: 1.8mi
Dew Point: 63°   Wind: 2mph
Humidity: 83%   Direction: 315°NW
Pressure: 29.88"   Gusts: NA
Location:  27.7°N, 68.85°E
Report Text: OPNH 260155Z 31502KT 3000 BR NSC 20/17 Q1012
Loading
Personal Weather Stations






























Interactive Weather Map
Tropical Storm Tracking
New forecast layout! Learn more

10-Day Weather Forecast

Advertisements
Track Severe Weather on mobile